createdAt,value
2023-03-31T00:00:26.634Z,5.90
2023-03-31T00:03:24.401Z,5.40
2023-03-31T00:06:19.630Z,5.40
2023-03-31T00:09:19.043Z,5.50
2023-03-31T00:12:14.207Z,5.70
2023-03-31T00:15:10.074Z,6.20
2023-03-31T00:18:06.529Z,5.60
2023-03-31T00:21:24.629Z,5.70
2023-03-31T00:24:19.771Z,5.20
2023-03-31T00:27:14.312Z,5.50
2023-03-31T00:30:10.665Z,5.20
2023-03-31T00:33:05.366Z,6.00
2023-03-31T00:36:06.291Z,6.20
2023-03-31T00:39:04.590Z,5.80
2023-03-31T00:45:28.648Z,5.90
2023-03-31T00:48:24.214Z,5.50
2023-03-31T00:51:20.049Z,5.60
2023-03-31T00:54:15.468Z,6.00
2023-03-31T00:57:07.708Z,5.80
2023-03-31T01:00:10.374Z,5.40
2023-03-31T01:03:11.639Z,6.00
2023-03-31T01:06:11.086Z,5.90
2023-03-31T01:09:11.271Z,5.40
2023-03-31T01:12:08.574Z,5.70
2023-03-31T01:15:04.531Z,5.70
2023-03-31T01:17:58.900Z,5.80
2023-03-31T01:21:30.931Z,5.60
2023-03-31T01:25:06.051Z,5.60
2023-03-31T01:28:16.363Z,5.90
2023-03-31T01:32:09.322Z,5.40
2023-03-31T01:35:56.967Z,5.30
2023-03-31T01:39:24.092Z,5.50
2023-03-31T01:42:24.233Z,5.70
2023-03-31T01:45:34.384Z,5.40
2023-03-31T01:51:37.027Z,5.40
2023-03-31T01:54:45.573Z,5.30
2023-03-31T01:57:45.515Z,5.60
2023-03-31T02:00:43.582Z,5.30
2023-03-31T02:03:43.043Z,5.70
2023-03-31T02:06:44.848Z,5.00
2023-03-31T02:09:45.469Z,5.60
2023-03-31T02:12:43.144Z,5.40
2023-03-31T02:18:38.430Z,5.30
2023-03-31T02:21:34.609Z,4.70
2023-03-31T02:24:32.809Z,5.20
2023-03-31T02:27:30.705Z,5.40
2023-03-31T02:30:29.820Z,6.00
2023-03-31T02:33:24.327Z,5.30
2023-03-31T02:36:19.555Z,5.30
2023-03-31T02:39:18.606Z,5.10
2023-03-31T02:42:12.931Z,5.50
2023-03-31T02:45:29.404Z,5.80
2023-03-31T02:48:25.239Z,5.60
2023-03-31T02:52:03.586Z,5.30
2023-03-31T02:55:22.636Z,5.50
2023-03-31T02:58:37.750Z,5.70
2023-03-31T03:01:44.988Z,5.40
2023-03-31T03:05:11.955Z,5.10
2023-03-31T03:08:18.183Z,5.00
2023-03-31T03:11:22.048Z,5.20
2023-03-31T03:17:43.545Z,5.00
2023-03-31T03:20:39.140Z,4.70
2023-03-31T03:23:34.182Z,5.40
2023-03-31T03:26:28.874Z,5.50
2023-03-31T03:29:23.300Z,5.40
2023-03-31T03:32:17.679Z,5.50
2023-03-31T03:35:12.796Z,5.40
2023-03-31T03:38:06.952Z,5.10
2023-03-31T03:41:00.882Z,5.50
2023-03-31T03:43:55.124Z,5.30
2023-03-31T03:46:49.523Z,5.10
2023-03-31T03:49:43.592Z,5.20
2023-03-31T03:52:38.176Z,5.40
2023-03-31T03:55:32.074Z,4.80
2023-03-31T03:58:21.457Z,4.90
2023-03-31T04:01:16.236Z,5.10
2023-03-31T04:04:10.479Z,5.30
2023-03-31T04:07:04.939Z,4.80
2023-03-31T04:09:58.546Z,4.60
2023-03-31T04:12:53.177Z,4.90
2023-03-31T04:15:47.521Z,5.00
2023-03-31T04:18:42.889Z,5.30
2023-03-31T04:21:37.029Z,5.20
2023-03-31T04:24:33.023Z,4.90
2023-03-31T04:27:27.866Z,5.40
2023-03-31T04:30:30.732Z,4.50
2023-03-31T04:33:25.608Z,5.10
2023-03-31T04:36:19.920Z,4.70
2023-03-31T04:39:14.607Z,4.70
2023-03-31T04:42:09.080Z,4.90
2023-03-31T04:45:03.090Z,5.20
2023-03-31T04:47:57.598Z,4.60
2023-03-31T04:50:52.767Z,4.80
2023-03-31T04:53:47.390Z,4.70
2023-03-31T04:56:41.370Z,4.70
2023-03-31T04:59:35.810Z,4.70
2023-03-31T05:02:30.031Z,4.80
2023-03-31T05:05:24.693Z,5.10
2023-03-31T05:08:19.035Z,5.00
2023-03-31T05:11:13.266Z,4.70
2023-03-31T05:14:07.332Z,4.50
2023-03-31T05:17:01.918Z,4.60
2023-03-31T05:19:56.138Z,4.60
2023-03-31T05:22:50.806Z,4.90
2023-03-31T05:25:45.113Z,4.90
2023-03-31T05:28:40.575Z,4.60
2023-03-31T05:31:35.351Z,4.90
2023-03-31T05:34:30.298Z,4.40
2023-03-31T05:37:25.145Z,5.50
2023-03-31T05:40:19.415Z,4.90
2023-03-31T05:43:13.322Z,5.00
2023-03-31T05:46:08.418Z,5.00
2023-03-31T05:49:02.834Z,5.50
2023-03-31T05:51:56.881Z,5.20
2023-03-31T05:54:51.118Z,5.40
2023-03-31T05:57:45.669Z,5.40
2023-03-31T06:00:39.724Z,5.20
2023-03-31T06:03:33.706Z,4.80
2023-03-31T06:06:28.091Z,5.10
2023-03-31T06:09:22.218Z,5.30
2023-03-31T06:12:17.150Z,5.20
2023-03-31T06:15:13.253Z,4.40
2023-03-31T06:18:10.855Z,5.50
2023-03-31T06:21:05.468Z,5.00
2023-03-31T06:24:00.810Z,5.40
2023-03-31T06:26:54.991Z,4.60
2023-03-31T06:29:50.202Z,5.10
2023-03-31T06:32:44.270Z,4.40
2023-03-31T06:35:40.580Z,4.80
2023-03-31T06:38:36.042Z,4.80
2023-03-31T06:41:30.521Z,5.30
2023-03-31T06:44:24.746Z,5.50
2023-03-31T06:47:19.148Z,5.30
2023-03-31T06:50:15.059Z,4.90
2023-03-31T06:53:09.383Z,4.90
2023-03-31T06:56:04.094Z,5.00
2023-03-31T06:58:58.736Z,5.30
2023-03-31T07:01:53.065Z,5.20
2023-03-31T07:04:47.645Z,5.20
2023-03-31T07:07:42.699Z,4.80
2023-03-31T07:10:38.672Z,5.30
2023-03-31T07:13:33.244Z,5.50
2023-03-31T07:16:27.708Z,5.40
2023-03-31T07:19:12.853Z,5.30
2023-03-31T07:22:07.209Z,5.30
2023-03-31T07:25:01.542Z,5.20
2023-03-31T07:27:56.044Z,5.30
2023-03-31T07:30:50.977Z,5.10
2023-03-31T07:33:45.601Z,5.30
2023-03-31T07:36:39.748Z,5.10
2023-03-31T07:39:50.133Z,5.40
2023-03-31T07:42:52.378Z,5.10
2023-03-31T07:45:46.522Z,5.00
2023-03-31T07:48:40.827Z,4.90
2023-03-31T07:51:36.700Z,4.80
2023-03-31T07:54:31.118Z,4.90
2023-03-31T07:57:28.148Z,5.30
2023-03-31T08:00:24.817Z,4.90
2023-03-31T08:03:19.308Z,4.30
2023-03-31T08:06:13.464Z,4.30
2023-03-31T08:09:08.735Z,3.80
2023-03-31T08:12:02.507Z,4.00
2023-03-31T08:14:56.220Z,4.90
2023-03-31T08:17:50.701Z,4.00
2023-03-31T08:20:46.159Z,3.30
2023-03-31T08:23:40.852Z,3.50
2023-03-31T08:26:35.332Z,3.90
2023-03-31T08:29:29.517Z,3.30
2023-03-31T08:32:26.211Z,3.30
2023-03-31T08:35:20.554Z,2.90
2023-03-31T08:38:14.738Z,3.00
2023-03-31T08:41:16.293Z,3.10
2023-03-31T08:44:15.825Z,3.70
2023-03-31T08:47:16.499Z,3.30
2023-03-31T08:50:17.058Z,3.20
2023-03-31T08:53:21.820Z,3.10
2023-03-31T08:56:22.646Z,3.60
2023-03-31T08:59:27.586Z,3.10
2023-03-31T09:02:35.819Z,3.30
2023-03-31T09:06:00.564Z,3.30
2023-03-31T09:09:01.840Z,3.20
2023-03-31T09:11:59.682Z,3.80
2023-03-31T09:15:01.404Z,3.40
2023-03-31T09:17:58.720Z,3.00
2023-03-31T09:21:01.984Z,3.00
2023-03-31T09:24:03.431Z,3.00
2023-03-31T09:27:01.930Z,2.80
2023-03-31T09:29:48.172Z,2.90
2023-03-31T09:32:42.899Z,2.90
2023-03-31T09:35:37.555Z,3.00
2023-03-31T09:38:32.232Z,2.60
2023-03-31T09:41:26.214Z,2.80
2023-03-31T09:44:29.284Z,3.40
2023-03-31T09:47:30.430Z,2.90
2023-03-31T09:50:25.583Z,2.80
2023-03-31T09:53:25.620Z,2.90
2023-03-31T09:56:47.035Z,2.90
2023-03-31T09:59:44.114Z,2.90
2023-03-31T10:02:45.502Z,2.90
2023-03-31T10:05:50.032Z,2.80
2023-03-31T10:08:51.725Z,2.70
2023-03-31T10:11:56.611Z,2.60
2023-03-31T10:14:53.411Z,2.60
2023-03-31T10:21:16.828Z,2.70
2023-03-31T10:24:19.289Z,2.70
2023-03-31T10:27:00.050Z,2.70
2023-03-31T10:29:57.562Z,2.70
2023-03-31T10:32:54.586Z,2.50
2023-03-31T10:35:51.298Z,2.40
2023-03-31T10:38:49.101Z,2.60
2023-03-31T10:41:43.143Z,2.40
2023-03-31T10:44:40.578Z,2.50
2023-03-31T10:47:36.291Z,2.40
2023-03-31T10:50:35.365Z,2.00
2023-03-31T10:53:29.515Z,2.60
2023-03-31T10:56:42.310Z,2.80
2023-03-31T10:59:58.650Z,2.70
2023-03-31T11:03:12.111Z,3.00
2023-03-31T11:06:16.225Z,2.80
2023-03-31T11:09:36.638Z,2.60
2023-03-31T11:12:20.487Z,3.00
2023-03-31T11:15:51.999Z,2.60
2023-03-31T11:18:59.682Z,3.00
2023-03-31T11:22:07.511Z,2.60
2023-03-31T11:25:24.253Z,2.70
2023-03-31T11:31:34.837Z,2.70
2023-03-31T11:34:58.070Z,2.70
2023-03-31T11:38:12.240Z,2.50
2023-03-31T11:41:03.736Z,2.40
2023-03-31T11:44:03.709Z,2.60
2023-03-31T11:47:07.584Z,2.20
2023-03-31T11:50:06.074Z,2.70
2023-03-31T11:53:05.748Z,2.60
2023-03-31T11:56:02.571Z,2.60
2023-03-31T11:59:02.101Z,2.70
2023-03-31T12:02:05.917Z,2.30
2023-03-31T12:05:01.227Z,2.40
2023-03-31T12:08:04.343Z,2.20
2023-03-31T12:11:08.536Z,2.10
2023-03-31T12:14:17.049Z,2.10
2023-03-31T12:17:16.141Z,1.80
2023-03-31T12:20:22.491Z,2.30
2023-03-31T12:23:13.629Z,2.10
2023-03-31T12:25:59.289Z,2.10
2023-03-31T12:28:59.447Z,1.90
2023-03-31T12:31:58.463Z,2.20
2023-03-31T12:34:59.269Z,1.80
2023-03-31T12:38:11.256Z,2.50
2023-03-31T12:41:16.386Z,2.40
2023-03-31T12:44:15.641Z,2.10
2023-03-31T12:48:04.229Z,1.90
2023-03-31T12:51:24.409Z,2.10
2023-03-31T12:54:45.548Z,2.20
2023-03-31T12:57:39.352Z,1.90
2023-03-31T13:00:33.752Z,2.60
2023-03-31T13:03:53.861Z,2.00
2023-03-31T13:07:11.762Z,2.20
2023-03-31T13:10:52.913Z,2.20
2023-03-31T13:17:26.194Z,2.00
2023-03-31T13:20:41.016Z,2.10
2023-03-31T13:23:37.727Z,1.80
2023-03-31T13:26:50.448Z,1.80
2023-03-31T13:29:46.636Z,1.90
2023-03-31T13:32:42.232Z,1.90
2023-03-31T13:35:38.235Z,2.00
2023-03-31T13:38:46.597Z,1.70
2023-03-31T13:41:56.659Z,1.90
2023-03-31T13:45:10.931Z,1.70
2023-03-31T13:48:18.891Z,1.60
2023-03-31T13:51:33.174Z,1.30
2023-03-31T13:55:14.417Z,1.30
2023-03-31T13:58:51.379Z,1.50
2023-03-31T14:05:30.069Z,1.50
2023-03-31T14:08:34.128Z,1.30
2023-03-31T14:14:23.805Z,1.30
2023-03-31T14:17:18.656Z,1.50
2023-03-31T14:20:38.243Z,1.40
2023-03-31T14:23:45.587Z,1.70
2023-03-31T14:26:55.139Z,1.80
2023-03-31T14:29:57.981Z,1.60
2023-03-31T14:33:22.034Z,1.70
2023-03-31T14:36:28.451Z,1.80
2023-03-31T14:39:27.923Z,1.90
2023-03-31T14:42:27.090Z,3.60
2023-03-31T14:45:24.906Z,2.90
2023-03-31T14:48:19.126Z,3.70
2023-03-31T14:51:15.843Z,2.80
2023-03-31T14:54:19.321Z,6.00
2023-03-31T14:57:16.587Z,7.70
2023-03-31T15:00:18.025Z,6.80
2023-03-31T15:03:17.770Z,5.60
2023-03-31T15:06:14.302Z,6.30
2023-03-31T15:09:10.786Z,5.70
2023-03-31T15:12:08.633Z,6.20
2023-03-31T15:15:06.187Z,6.50
2023-03-31T15:18:00.063Z,5.90
2023-03-31T15:20:54.105Z,5.60
2023-03-31T15:23:47.889Z,5.10
2023-03-31T15:26:46.217Z,5.10
2023-03-31T15:29:43.030Z,4.40
2023-03-31T15:32:40.805Z,5.60
2023-03-31T15:35:38.563Z,4.30
2023-03-31T15:38:33.557Z,4.50
2023-03-31T15:41:32.305Z,4.50
2023-03-31T15:44:54.949Z,4.70
2023-03-31T15:48:11.523Z,4.40
2023-03-31T15:51:19.601Z,3.80
2023-03-31T15:54:33.860Z,4.40
2023-03-31T15:57:36.491Z,5.20
2023-03-31T16:00:52.665Z,3.80
2023-03-31T16:03:48.059Z,3.80
2023-03-31T16:06:50.226Z,4.90
2023-03-31T16:09:50.851Z,4.90
2023-03-31T16:12:55.587Z,4.30
2023-03-31T16:15:39.616Z,4.70
2023-03-31T16:18:33.485Z,5.30
2023-03-31T16:21:39.350Z,4.90
2023-03-31T16:24:37.593Z,5.70
2023-03-31T16:27:32.350Z,6.20
2023-03-31T16:30:37.572Z,5.10
2023-03-31T16:33:53.000Z,5.60
2023-03-31T16:36:47.487Z,4.70
2023-03-31T16:39:43.497Z,5.20
2023-03-31T16:42:38.873Z,4.80
2023-03-31T16:45:33.017Z,5.10
2023-03-31T16:48:33.871Z,5.30
2023-03-31T16:51:28.322Z,5.10
2023-03-31T16:54:25.940Z,5.40
2023-03-31T16:57:20.973Z,5.80
2023-03-31T17:00:21.325Z,6.00
2023-03-31T17:03:18.749Z,6.30
2023-03-31T17:06:08.503Z,5.90
2023-03-31T17:08:59.557Z,5.40
2023-03-31T17:11:53.319Z,5.70
2023-03-31T17:14:47.117Z,6.60
2023-03-31T17:17:41.697Z,6.10
2023-03-31T17:20:36.568Z,6.50
2023-03-31T17:23:30.809Z,6.30
2023-03-31T17:26:25.026Z,6.70
2023-03-31T17:29:20.085Z,6.80
2023-03-31T17:32:16.844Z,7.30
2023-03-31T17:35:20.931Z,6.80
2023-03-31T17:38:15.910Z,7.00
2023-03-31T17:41:13.867Z,7.10
2023-03-31T17:44:08.966Z,11.20
2023-03-31T17:47:03.340Z,10.30
2023-03-31T17:49:59.178Z,9.30
2023-03-31T17:52:53.437Z,8.60
2023-03-31T17:55:47.216Z,10.40
2023-03-31T17:58:41.603Z,7.70
2023-03-31T18:01:35.724Z,8.30
2023-03-31T18:04:29.880Z,7.90
2023-03-31T18:07:24.110Z,7.20
2023-03-31T18:10:18.649Z,6.80
2023-03-31T18:13:13.018Z,7.50
2023-03-31T18:16:09.807Z,7.10
2023-03-31T18:19:04.733Z,7.20
2023-03-31T18:21:58.553Z,7.20
2023-03-31T18:24:52.312Z,7.30
2023-03-31T18:27:47.350Z,6.90
2023-03-31T18:30:41.238Z,6.80
2023-03-31T18:33:35.736Z,6.40
2023-03-31T18:36:32.103Z,6.40
2023-03-31T18:39:27.507Z,7.30
2023-03-31T18:42:25.052Z,6.30
2023-03-31T18:45:19.143Z,6.70
2023-03-31T18:48:12.915Z,6.50
2023-03-31T18:51:06.942Z,6.50
2023-03-31T18:54:00.841Z,7.00
2023-03-31T18:56:54.827Z,6.00
2023-03-31T18:59:48.837Z,6.30
2023-03-31T19:02:42.856Z,6.70
2023-03-31T19:05:37.045Z,6.70
2023-03-31T19:08:32.567Z,6.80
2023-03-31T19:11:27.185Z,6.50
2023-03-31T19:14:20.868Z,7.10
2023-03-31T19:17:14.726Z,6.30
2023-03-31T19:20:16.258Z,6.20
2023-03-31T19:23:10.181Z,6.40
2023-03-31T19:26:04.807Z,6.90
2023-03-31T19:28:58.769Z,6.80
2023-03-31T19:31:52.622Z,6.60
2023-03-31T19:34:49.030Z,7.10
2023-03-31T19:37:42.718Z,7.20
2023-03-31T19:40:38.768Z,7.50
2023-03-31T19:43:32.906Z,7.30
2023-03-31T19:46:26.924Z,7.40
2023-03-31T19:49:21.978Z,7.10
2023-03-31T19:52:16.920Z,7.50
2023-03-31T19:55:11.895Z,7.70
2023-03-31T19:58:06.898Z,7.10
2023-03-31T20:01:02.303Z,8.00
2023-03-31T20:03:56.872Z,7.80
2023-03-31T20:06:51.296Z,7.70
2023-03-31T20:09:46.009Z,8.00
2023-03-31T20:12:40.028Z,8.20
2023-03-31T20:15:34.224Z,8.20
2023-03-31T20:18:53.434Z,8.90
2023-03-31T20:22:39.955Z,8.40
2023-03-31T20:25:59.975Z,8.80
2023-03-31T20:29:04.660Z,8.80
2023-03-31T20:32:00.409Z,10.00
2023-03-31T20:34:41.324Z,9.60
2023-03-31T20:37:35.888Z,9.70
2023-03-31T20:43:17.448Z,11.70
2023-03-31T20:46:36.256Z,10.40
2023-03-31T20:49:13.255Z,27.50
2023-03-31T20:52:08.157Z,27.10
2023-03-31T20:55:03.460Z,25.80
2023-03-31T20:57:57.380Z,23.40
2023-03-31T21:01:00.280Z,24.00
2023-03-31T21:03:54.844Z,24.10
2023-03-31T21:06:51.738Z,22.20
2023-03-31T21:09:46.885Z,23.10
2023-03-31T21:12:46.515Z,22.40
2023-03-31T21:15:23.288Z,21.40
2023-03-31T21:18:24.448Z,22.10
2023-03-31T21:21:20.855Z,22.20
2023-03-31T21:24:18.826Z,21.30
2023-03-31T21:27:13.931Z,20.60
2023-03-31T21:30:10.582Z,20.20
2023-03-31T21:33:13.328Z,14.80
2023-03-31T21:36:10.781Z,15.40
2023-03-31T21:39:07.047Z,14.50
2023-03-31T21:41:43.769Z,13.90
2023-03-31T21:44:40.094Z,13.00
2023-03-31T21:47:23.890Z,14.00
2023-03-31T21:50:22.999Z,12.50
2023-03-31T21:53:19.322Z,13.20
2023-03-31T21:56:17.251Z,11.80
2023-03-31T21:59:19.279Z,12.20
2023-03-31T22:02:23.911Z,11.90
2023-03-31T22:05:20.260Z,11.00
2023-03-31T22:08:18.784Z,11.10
2023-03-31T22:11:18.325Z,11.00
2023-03-31T22:14:34.108Z,9.80
2023-03-31T22:17:28.464Z,9.60
2023-03-31T22:20:24.752Z,9.30
2023-03-31T22:23:21.012Z,9.10
2023-03-31T22:26:15.511Z,9.70
2023-03-31T22:29:14.360Z,9.20
2023-03-31T22:32:12.069Z,8.80
2023-03-31T22:35:09.461Z,8.50
2023-03-31T22:38:08.849Z,8.10
2023-03-31T22:41:04.734Z,7.50
2023-03-31T22:43:52.510Z,7.50
2023-03-31T22:46:51.649Z,7.40
2023-03-31T22:49:49.511Z,7.30
2023-03-31T22:52:50.009Z,6.90
2023-03-31T22:55:54.052Z,6.60
2023-03-31T22:58:52.101Z,6.80
2023-03-31T23:01:53.197Z,5.70
2023-03-31T23:04:53.499Z,6.20
2023-03-31T23:07:48.404Z,5.30
2023-03-31T23:11:05.520Z,5.80
2023-03-31T23:14:04.155Z,4.80
2023-03-31T23:17:00.666Z,5.30
2023-03-31T23:19:56.270Z,5.50
2023-03-31T23:23:40.625Z,5.00
2023-03-31T23:26:09.598Z,5.10
2023-03-31T23:29:05.680Z,4.90
2023-03-31T23:32:21.658Z,4.70
2023-03-31T23:35:19.197Z,4.60
2023-03-31T23:38:18.319Z,4.10
2023-03-31T23:41:14.590Z,4.40
2023-03-31T23:44:13.017Z,4.00
2023-03-31T23:47:08.991Z,3.70
2023-03-31T23:51:07.158Z,3.50
2023-03-31T23:53:29.342Z,3.80
2023-03-31T23:56:14.859Z,4.10
2023-03-31T23:59:13.875Z,3.50
